createdAt,value
2023-03-17T00:01:13.911Z,12.45
2023-03-17T00:03:42.911Z,16.13
2023-03-17T00:06:19.141Z,13.85
2023-03-17T00:08:48.298Z,11.60
2023-03-17T00:11:17.308Z,13.32
2023-03-17T00:13:46.119Z,14.25
2023-03-17T00:16:25.470Z,14.02
2023-03-17T00:18:53.794Z,13.70
2023-03-17T00:21:28.289Z,14.40
2023-03-17T00:23:56.227Z,13.95
2023-03-17T00:26:24.209Z,16.13
2023-03-17T00:28:52.989Z,11.45
2023-03-17T00:31:22.403Z,14.68
2023-03-17T00:33:52.247Z,15.10
2023-03-17T00:36:21.456Z,14.10
2023-03-17T00:38:48.619Z,10.93
2023-03-17T00:41:15.274Z,13.15
2023-03-17T00:43:42.058Z,15.18
2023-03-17T00:46:23.711Z,15.63
2023-03-17T00:48:50.456Z,13.80
2023-03-17T00:51:17.389Z,12.70
2023-03-17T00:53:44.297Z,16.92
2023-03-17T00:56:14.597Z,15.75
2023-03-17T00:58:42.117Z,12.55
2023-03-17T01:01:09.220Z,14.27
2023-03-17T01:03:36.252Z,13.30
2023-03-17T01:06:05.078Z,13.32
2023-03-17T01:08:32.180Z,11.80
2023-03-17T01:10:59.536Z,14.57
2023-03-17T01:13:26.370Z,14.07
2023-03-17T01:15:53.230Z,15.85
2023-03-17T01:18:22.774Z,13.88
2023-03-17T01:20:51.139Z,14.03
2023-03-17T01:23:18.206Z,14.23
2023-03-17T01:25:45.501Z,13.55
2023-03-17T01:28:14.870Z,15.43
2023-03-17T01:30:41.531Z,14.10
2023-03-17T01:33:09.882Z,14.52
2023-03-17T01:35:38.304Z,16.02
2023-03-17T01:38:06.118Z,14.10
2023-03-17T01:40:35.947Z,15.13
2023-03-17T01:43:17.537Z,14.80
2023-03-17T01:46:21.255Z,14.40
2023-03-17T01:48:56.771Z,14.43
2023-03-17T01:51:36.617Z,12.25
2023-03-17T01:54:08.543Z,13.52
2023-03-17T01:56:37.994Z,12.80
2023-03-17T01:59:10.149Z,13.48
2023-03-17T02:01:43.574Z,15.32
2023-03-17T02:04:11.918Z,14.57
2023-03-17T02:06:55.113Z,14.15
2023-03-17T02:09:24.268Z,13.52
2023-03-17T02:11:51.080Z,13.52
2023-03-17T02:14:17.876Z,13.93
2023-03-17T02:16:47.774Z,14.70
2023-03-17T02:19:14.451Z,15.95
2023-03-17T02:21:45.287Z,15.20
2023-03-17T02:24:28.287Z,13.73
2023-03-17T02:27:00.440Z,14.00
2023-03-17T02:29:27.732Z,15.57
2023-03-17T02:31:54.765Z,13.23
2023-03-17T02:34:21.819Z,14.32
2023-03-17T02:36:48.522Z,14.23
2023-03-17T02:39:15.395Z,14.95
2023-03-17T02:41:42.496Z,13.10
2023-03-17T02:44:09.348Z,13.07
2023-03-17T02:46:36.299Z,13.75
2023-03-17T02:49:04.389Z,14.23
2023-03-17T02:51:31.023Z,14.65
2023-03-17T02:53:57.600Z,13.02
2023-03-17T02:56:24.299Z,13.18
2023-03-17T02:58:51.185Z,15.43
2023-03-17T03:01:18.307Z,14.55
2023-03-17T03:03:44.911Z,14.43
2023-03-17T03:06:11.656Z,14.50
2023-03-17T03:08:38.404Z,13.63
2023-03-17T03:11:05.143Z,14.27
2023-03-17T03:13:32.757Z,12.48
2023-03-17T03:16:00.185Z,14.65
2023-03-17T03:18:26.941Z,14.55
2023-03-17T03:20:53.703Z,17.08
2023-03-17T03:23:20.782Z,14.50
2023-03-17T03:25:47.498Z,14.38
2023-03-17T03:28:14.112Z,12.63
2023-03-17T03:30:41.663Z,14.65
2023-03-17T03:33:08.367Z,15.77
2023-03-17T03:35:35.363Z,13.88
2023-03-17T03:38:02.203Z,13.95
2023-03-17T03:40:28.992Z,15.73
2023-03-17T03:42:56.176Z,14.55
2023-03-17T03:45:23.018Z,12.55
2023-03-17T03:47:49.683Z,14.43
2023-03-17T03:50:16.785Z,15.25
2023-03-17T03:52:43.413Z,13.57
2023-03-17T03:55:10.525Z,14.75
2023-03-17T03:57:37.340Z,12.20
2023-03-17T04:00:05.207Z,13.80
2023-03-17T04:02:31.991Z,12.93
2023-03-17T04:04:58.687Z,13.82
2023-03-17T04:07:25.768Z,13.63
2023-03-17T04:09:52.340Z,13.93
2023-03-17T04:12:19.532Z,13.80
2023-03-17T04:14:46.174Z,14.98
2023-03-17T04:17:13.114Z,14.40
2023-03-17T04:19:40.108Z,14.45
2023-03-17T04:22:09.086Z,13.88
2023-03-17T04:24:35.819Z,13.52
2023-03-17T04:27:05.485Z,13.30
2023-03-17T04:29:32.654Z,12.93
2023-03-17T04:31:59.753Z,13.85
2023-03-17T04:34:27.323Z,13.13
2023-03-17T04:36:54.335Z,13.55
2023-03-17T04:39:21.020Z,13.07
2023-03-17T04:41:47.695Z,15.57
2023-03-17T04:44:14.378Z,16.30
2023-03-17T04:46:40.982Z,14.50
2023-03-17T04:49:08.473Z,13.43
2023-03-17T04:51:36.959Z,13.93
2023-03-17T04:54:03.849Z,12.75
2023-03-17T04:56:31.929Z,16.95
2023-03-17T04:58:58.911Z,13.23
2023-03-17T05:01:25.721Z,14.85
2023-03-17T05:03:52.655Z,13.95
2023-03-17T05:06:19.372Z,12.48
2023-03-17T05:08:46.085Z,13.43
2023-03-17T05:11:13.650Z,14.70
2023-03-17T05:13:43.488Z,13.50
2023-03-17T05:16:11.145Z,13.18
2023-03-17T05:18:38.403Z,16.13
2023-03-17T05:21:06.456Z,14.25
2023-03-17T05:23:34.015Z,14.45
2023-03-17T05:26:01.063Z,14.57
2023-03-17T05:28:27.941Z,14.30
2023-03-17T05:30:55.217Z,14.55
2023-03-17T05:33:22.204Z,13.30
2023-03-17T05:35:48.949Z,15.50
2023-03-17T05:38:16.124Z,14.73
2023-03-17T05:40:43.488Z,14.95
2023-03-17T05:43:10.620Z,12.93
2023-03-17T05:45:37.724Z,15.88
2023-03-17T05:48:04.905Z,16.55
2023-03-17T05:50:32.516Z,15.25
2023-03-17T05:52:59.411Z,14.00
2023-03-17T05:55:26.263Z,15.73
2023-03-17T05:57:52.978Z,12.88
2023-03-17T06:00:21.508Z,13.63
2023-03-17T06:02:48.403Z,13.85
2023-03-17T06:05:15.135Z,13.75
2023-03-17T06:07:52.844Z,14.50
2023-03-17T06:10:21.994Z,14.73
2023-03-17T06:12:48.620Z,13.55
2023-03-17T06:15:16.638Z,15.52
2023-03-17T06:17:43.635Z,14.98
2023-03-17T06:20:11.790Z,14.75
2023-03-17T06:22:46.311Z,13.55
2023-03-17T06:25:19.026Z,13.85
2023-03-17T06:27:45.640Z,13.77
2023-03-17T06:30:12.552Z,15.57
2023-03-17T06:32:40.255Z,14.90
2023-03-17T06:35:07.547Z,15.35
2023-03-17T06:37:35.154Z,15.95
2023-03-17T06:40:02.305Z,14.75
2023-03-17T06:42:28.953Z,15.90
2023-03-17T06:44:55.651Z,16.02
2023-03-17T06:47:25.486Z,14.20
2023-03-17T06:49:53.535Z,14.07
2023-03-17T06:52:20.225Z,16.80
2023-03-17T06:54:47.301Z,13.95
2023-03-17T06:57:13.998Z,16.05
2023-03-17T06:59:41.760Z,14.30
2023-03-17T07:02:11.657Z,13.45
2023-03-17T07:04:38.694Z,13.45
2023-03-17T07:07:06.176Z,14.68
2023-03-17T07:09:34.664Z,14.95
2023-03-17T07:12:05.176Z,16.70
2023-03-17T07:14:36.784Z,16.33
2023-03-17T07:17:06.130Z,17.80
2023-03-17T07:19:33.447Z,17.17
2023-03-17T07:22:00.246Z,15.45
2023-03-17T07:24:27.083Z,12.65
2023-03-17T07:26:53.742Z,15.35
2023-03-17T07:29:21.389Z,15.30
2023-03-17T07:31:48.398Z,12.82
2023-03-17T07:34:16.448Z,17.25
2023-03-17T07:36:43.310Z,15.15
2023-03-17T07:39:12.015Z,14.73
2023-03-17T07:41:38.998Z,12.85
2023-03-17T07:44:05.635Z,14.50
2023-03-17T07:46:32.394Z,13.77
2023-03-17T07:48:59.070Z,15.18
2023-03-17T07:51:28.248Z,15.07
2023-03-17T07:54:03.337Z,15.32
2023-03-17T07:56:31.446Z,16.65
2023-03-17T07:58:59.136Z,14.57
2023-03-17T08:01:29.084Z,13.88
2023-03-17T08:03:56.683Z,15.05
2023-03-17T08:06:27.548Z,14.38
2023-03-17T08:08:55.117Z,13.77
2023-03-17T08:11:23.474Z,17.17
2023-03-17T08:13:51.066Z,13.55
2023-03-17T08:16:17.841Z,16.02
2023-03-17T08:18:44.806Z,13.13
2023-03-17T08:21:12.294Z,16.15
2023-03-17T08:23:39.688Z,14.85
2023-03-17T08:26:06.567Z,14.65
2023-03-17T08:28:33.183Z,13.23
2023-03-17T08:31:15.331Z,13.10
2023-03-17T08:33:43.131Z,15.00
2023-03-17T08:36:11.464Z,14.75
2023-03-17T08:38:40.204Z,13.32
2023-03-17T08:41:10.827Z,15.20
2023-03-17T08:46:13.100Z,16.75
2023-03-17T08:48:39.906Z,15.25
2023-03-17T08:51:06.950Z,14.27
2023-03-17T08:53:35.223Z,15.30
2023-03-17T08:56:04.688Z,14.48
2023-03-17T08:58:31.544Z,13.98
2023-03-17T09:01:03.765Z,14.80
2023-03-17T09:03:31.241Z,14.40
2023-03-17T09:05:58.174Z,14.85
2023-03-17T09:08:25.346Z,14.60
2023-03-17T09:10:53.173Z,13.32
2023-03-17T09:13:20.878Z,14.93
2023-03-17T09:15:51.250Z,14.70
2023-03-17T09:18:21.394Z,14.88
2023-03-17T09:20:48.814Z,14.05
2023-03-17T09:23:16.101Z,15.10
2023-03-17T09:25:43.117Z,14.65
2023-03-17T09:28:12.193Z,16.00
2023-03-17T09:30:43.003Z,13.88
2023-03-17T09:33:12.022Z,14.23
2023-03-17T09:35:39.988Z,15.13
2023-03-17T09:38:08.317Z,14.48
2023-03-17T09:40:47.978Z,14.38
2023-03-17T09:43:31.974Z,14.25
2023-03-17T09:46:14.252Z,14.93
2023-03-17T09:49:01.703Z,14.70
2023-03-17T09:51:30.029Z,15.93
2023-03-17T09:54:02.445Z,14.93
2023-03-17T09:56:34.843Z,14.88
2023-03-17T09:59:32.228Z,14.40
2023-03-17T10:01:59.188Z,16.88
2023-03-17T10:04:25.910Z,14.70
2023-03-17T10:07:01.712Z,14.90
2023-03-17T10:09:41.898Z,14.45
2023-03-17T10:12:12.572Z,14.70
2023-03-17T10:14:54.513Z,15.93
2023-03-17T10:17:29.889Z,12.88
2023-03-17T10:20:08.810Z,15.93
2023-03-17T10:22:48.472Z,16.25
2023-03-17T10:25:23.713Z,17.38
2023-03-17T10:27:58.223Z,15.07
2023-03-17T10:30:25.978Z,14.98
2023-03-17T10:32:53.947Z,14.10
2023-03-17T10:35:23.534Z,15.93
2023-03-17T10:37:51.118Z,14.93
2023-03-17T10:40:28.642Z,15.90
2023-03-17T10:43:03.823Z,14.50
2023-03-17T10:45:39.093Z,16.73
2023-03-17T10:48:17.418Z,15.25
2023-03-17T10:50:48.655Z,15.50
2023-03-17T10:53:30.315Z,14.20
2023-03-17T10:56:07.274Z,14.68
2023-03-17T10:59:05.053Z,15.60
2023-03-17T11:01:47.404Z,16.25
2023-03-17T11:04:27.526Z,16.13
2023-03-17T11:06:58.376Z,17.33
2023-03-17T11:09:29.210Z,15.35
2023-03-17T11:12:36.692Z,16.85
2023-03-17T11:15:17.734Z,16.10
2023-03-17T11:17:58.978Z,16.75
2023-03-17T11:20:40.900Z,14.35
2023-03-17T11:23:19.500Z,16.65
2023-03-17T11:25:49.802Z,16.98
2023-03-17T11:28:21.949Z,16.50
2023-03-17T11:31:18.916Z,16.52
2023-03-17T11:34:02.510Z,16.98
2023-03-17T11:36:44.720Z,15.88
2023-03-17T11:39:23.915Z,19.25
2023-03-17T11:42:08.626Z,17.17
2023-03-17T11:45:13.348Z,17.55
2023-03-17T11:48:15.252Z,16.10
2023-03-17T11:50:44.317Z,17.40
2023-03-17T11:53:25.664Z,16.42
2023-03-17T11:55:58.067Z,17.60
2023-03-17T11:58:46.778Z,16.25
2023-03-17T12:01:19.600Z,17.90
2023-03-17T12:04:18.435Z,17.55
2023-03-17T12:06:52.051Z,16.30
2023-03-17T12:09:25.893Z,16.25
2023-03-17T12:11:55.855Z,16.33
2023-03-17T12:14:30.759Z,16.23
2023-03-17T12:17:17.180Z,18.77
2023-03-17T12:20:12.522Z,16.13
2023-03-17T12:23:06.997Z,16.20
2023-03-17T12:25:42.580Z,15.38
2023-03-17T12:28:17.875Z,16.58
2023-03-17T12:30:56.059Z,15.75
2023-03-17T12:33:36.834Z,17.40
2023-03-17T12:36:05.432Z,17.55
2023-03-17T12:38:43.289Z,14.57
2023-03-17T12:41:13.217Z,15.73
2023-03-17T12:43:48.415Z,16.33
2023-03-17T12:46:41.890Z,16.40
2023-03-17T12:49:36.247Z,18.38
2023-03-17T12:52:15.440Z,16.17
2023-03-17T12:54:46.540Z,17.27
2023-03-17T12:57:14.859Z,16.02
2023-03-17T12:59:48.438Z,15.88
2023-03-17T13:02:46.025Z,17.25
2023-03-17T13:05:17.598Z,18.63
2023-03-17T13:11:42.375Z,17.65
2023-03-17T13:14:24.572Z,16.55
2023-03-17T13:16:51.800Z,18.27
2023-03-17T13:19:22.873Z,15.75
2023-03-17T13:22:04.826Z,18.48
2023-03-17T13:24:47.423Z,17.02
2023-03-17T13:27:32.527Z,17.25
2023-03-17T13:30:21.797Z,45.50
2023-03-17T13:33:04.388Z,25.48
2023-03-17T13:35:45.601Z,15.48
2023-03-17T13:38:33.195Z,16.15
2023-03-17T13:41:08.752Z,16.70
2023-03-17T13:43:54.275Z,16.67
2023-03-17T13:46:44.123Z,17.20
2023-03-17T13:49:20.007Z,17.10
2023-03-17T13:52:00.348Z,16.48
2023-03-17T13:56:59.298Z,15.90
2023-03-17T13:59:53.251Z,16.83
2023-03-17T14:02:23.811Z,16.52
2023-03-17T14:07:24.216Z,16.63
2023-03-17T14:09:57.398Z,16.60
2023-03-17T14:12:38.425Z,16.63
2023-03-17T14:15:23.963Z,15.93
2023-03-17T14:17:57.578Z,17.15
2023-03-17T14:20:27.467Z,16.80
2023-03-17T14:22:57.395Z,16.27
2023-03-17T14:25:28.784Z,19.73
2023-03-17T14:27:57.920Z,17.23
2023-03-17T14:30:26.824Z,16.65
2023-03-17T14:33:13.998Z,16.40
2023-03-17T14:35:43.334Z,16.80
2023-03-17T14:38:19.171Z,16.35
2023-03-17T14:40:46.141Z,16.92
2023-03-17T14:43:13.699Z,15.52
2023-03-17T14:45:48.102Z,18.15
2023-03-17T14:48:17.494Z,18.17
2023-03-17T14:50:56.487Z,18.45
2023-03-17T14:53:24.740Z,16.05
2023-03-17T14:55:53.576Z,15.60
2023-03-17T14:58:36.756Z,18.15
2023-03-17T15:01:03.681Z,18.38
2023-03-17T15:03:33.174Z,16.48
2023-03-17T15:06:07.725Z,20.60
2023-03-17T15:08:43.550Z,16.35
2023-03-17T15:11:22.335Z,16.00
2023-03-17T15:13:50.542Z,15.40
2023-03-17T15:16:24.681Z,15.32
2023-03-17T15:19:01.927Z,19.25
2023-03-17T15:21:34.695Z,16.27
2023-03-17T15:24:23.437Z,16.98
2023-03-17T15:26:50.304Z,16.38
2023-03-17T15:29:17.089Z,15.50
2023-03-17T15:31:43.759Z,17.08
2023-03-17T15:34:15.173Z,18.17
2023-03-17T15:36:43.537Z,16.20
2023-03-17T15:39:10.531Z,17.17
2023-03-17T15:41:37.305Z,18.58
2023-03-17T15:44:05.237Z,15.88
2023-03-17T15:46:34.137Z,17.55
2023-03-17T15:49:01.333Z,17.98
2023-03-17T15:51:28.045Z,17.13
2023-03-17T15:53:54.653Z,16.60
2023-03-17T15:56:22.125Z,20.88
2023-03-17T15:58:52.272Z,16.70
2023-03-17T16:01:20.142Z,22.80
2023-03-17T16:03:48.102Z,15.80
2023-03-17T16:06:22.121Z,16.73
2023-03-17T16:08:50.352Z,16.77
2023-03-17T16:11:27.884Z,16.00
2023-03-17T16:13:56.585Z,16.05
2023-03-17T16:16:31.897Z,18.00
2023-03-17T16:18:59.278Z,17.13
2023-03-17T16:21:26.421Z,18.05
2023-03-17T16:23:54.035Z,17.90
2023-03-17T16:26:21.104Z,16.88
2023-03-17T16:28:49.139Z,18.55
2023-03-17T16:31:30.312Z,17.88
2023-03-17T16:33:57.286Z,17.02
2023-03-17T16:36:25.552Z,17.50
2023-03-17T16:38:52.402Z,15.73
2023-03-17T16:41:24.542Z,17.13
2023-03-17T16:43:57.659Z,19.27
2023-03-17T16:46:27.082Z,16.55
2023-03-17T16:48:53.842Z,18.13
2023-03-17T16:51:20.740Z,19.80
2023-03-17T16:53:47.424Z,17.67
2023-03-17T16:56:18.270Z,16.45
2023-03-17T16:58:46.262Z,18.13
2023-03-17T17:01:25.104Z,17.33
2023-03-17T17:03:52.215Z,17.90
2023-03-17T17:06:20.376Z,17.63
2023-03-17T17:08:48.173Z,18.85
2023-03-17T17:11:16.902Z,17.17
2023-03-17T17:13:46.282Z,18.42
2023-03-17T17:16:33.071Z,16.70
2023-03-17T17:19:00.380Z,18.15
2023-03-17T17:21:27.866Z,18.15
2023-03-17T17:23:55.666Z,16.58
2023-03-17T17:26:23.019Z,16.95
2023-03-17T17:28:49.929Z,20.60
2023-03-17T17:31:16.925Z,17.95
2023-03-17T17:33:43.601Z,16.42
2023-03-17T17:36:15.729Z,18.10
2023-03-17T17:38:43.154Z,18.40
2023-03-17T17:41:11.926Z,21.33
2023-03-17T17:43:39.240Z,21.55
2023-03-17T17:46:15.485Z,20.83
2023-03-17T17:48:42.294Z,21.17
2023-03-17T17:51:09.029Z,18.27
2023-03-17T17:53:35.906Z,19.92
2023-03-17T17:56:02.847Z,17.35
2023-03-17T17:58:29.437Z,17.02
2023-03-17T18:00:57.519Z,18.20
2023-03-17T18:03:26.383Z,19.02
2023-03-17T18:05:55.408Z,17.50
2023-03-17T18:08:23.878Z,18.52
2023-03-17T18:10:52.209Z,19.77
2023-03-17T18:13:19.272Z,18.95
2023-03-17T18:15:46.154Z,17.40
2023-03-17T18:18:12.891Z,16.95
2023-03-17T18:20:39.738Z,18.45
2023-03-17T18:23:06.791Z,16.60
2023-03-17T18:25:34.055Z,18.10
2023-03-17T18:28:01.509Z,16.67
2023-03-17T18:30:31.798Z,16.40
2023-03-17T18:33:04.508Z,17.52
2023-03-17T18:35:31.585Z,17.70
2023-03-17T18:37:58.521Z,20.58
2023-03-17T18:40:26.532Z,17.75
2023-03-17T18:42:53.308Z,17.85
2023-03-17T18:45:20.018Z,17.80
2023-03-17T18:47:47.069Z,17.70
2023-03-17T18:50:15.578Z,17.77
2023-03-17T18:52:43.787Z,18.10
2023-03-17T18:55:12.308Z,17.17
2023-03-17T18:57:39.285Z,17.45
2023-03-17T19:00:08.587Z,16.60
2023-03-17T19:02:36.315Z,18.15
2023-03-17T19:05:03.685Z,18.48
2023-03-17T19:07:30.767Z,19.80
2023-03-17T19:09:57.674Z,18.83
2023-03-17T19:12:24.760Z,17.52
2023-03-17T19:14:52.243Z,16.58
2023-03-17T19:17:19.011Z,17.48
2023-03-17T19:19:46.992Z,18.67
2023-03-17T19:22:14.167Z,19.63
2023-03-17T19:24:41.237Z,18.45
2023-03-17T19:27:07.971Z,19.58
2023-03-17T19:29:34.737Z,18.92
2023-03-17T19:32:02.340Z,20.25
2023-03-17T19:34:29.238Z,19.98
2023-03-17T19:36:56.207Z,17.27
2023-03-17T19:39:23.180Z,18.15
2023-03-17T19:41:53.300Z,17.52
2023-03-17T19:44:19.918Z,16.50
2023-03-17T19:46:46.729Z,19.63
2023-03-17T19:49:13.545Z,18.75
2023-03-17T19:51:42.008Z,19.92
2023-03-17T19:54:09.975Z,26.02
2023-03-17T19:56:38.401Z,79.45
2023-03-17T19:59:09.113Z,63.97
2023-03-17T20:01:37.868Z,54.15
2023-03-17T20:04:06.865Z,59.22
2023-03-17T20:06:34.765Z,53.53
2023-03-17T20:09:04.301Z,45.28
2023-03-17T20:11:33.972Z,44.20
2023-03-17T20:14:02.263Z,29.27
2023-03-17T20:16:31.942Z,21.13
2023-03-17T20:18:58.568Z,18.90
2023-03-17T20:21:25.519Z,22.80
2023-03-17T20:23:52.577Z,20.60
2023-03-17T20:26:20.057Z,23.33
2023-03-17T20:28:47.486Z,19.48
2023-03-17T20:31:14.378Z,20.38
2023-03-17T20:33:41.422Z,19.00
2023-03-17T20:36:08.497Z,18.95
2023-03-17T20:38:38.846Z,17.40
2023-03-17T20:41:11.307Z,20.23
2023-03-17T20:43:38.836Z,19.27
2023-03-17T20:46:08.571Z,17.60
2023-03-17T20:48:37.331Z,18.35
2023-03-17T20:51:06.155Z,19.95
2023-03-17T20:53:36.237Z,22.05
2023-03-17T20:56:03.086Z,18.08
2023-03-17T20:58:30.491Z,18.33
2023-03-17T21:00:58.516Z,18.83
2023-03-17T21:03:25.400Z,18.60
2023-03-17T21:05:53.413Z,17.27
2023-03-17T21:08:20.091Z,19.25
2023-03-17T21:10:46.807Z,19.15
2023-03-17T21:13:13.679Z,18.38
2023-03-17T21:15:41.216Z,17.45
2023-03-17T21:18:08.003Z,18.20
2023-03-17T21:20:34.735Z,16.98
2023-03-17T21:23:04.512Z,18.13
2023-03-17T21:25:31.291Z,18.40
2023-03-17T21:27:58.057Z,17.95
2023-03-17T21:30:24.689Z,19.77
2023-03-17T21:32:51.350Z,20.67
2023-03-17T21:35:18.184Z,17.15
2023-03-17T21:37:44.941Z,17.38
2023-03-17T21:40:15.697Z,17.88
2023-03-17T21:45:09.329Z,18.90
2023-03-17T21:47:41.076Z,19.35
2023-03-17T21:50:08.565Z,18.85
2023-03-17T21:52:35.227Z,19.50
2023-03-17T21:55:01.971Z,18.77
2023-03-17T21:57:29.727Z,17.85
2023-03-17T21:59:56.350Z,18.02
2023-03-17T22:02:23.580Z,18.77
2023-03-17T22:04:50.332Z,19.92
2023-03-17T22:07:17.856Z,18.45
2023-03-17T22:09:44.951Z,17.77
2023-03-17T22:12:12.232Z,18.33
2023-03-17T22:14:38.871Z,19.13
2023-03-17T22:17:05.622Z,18.83
2023-03-17T22:19:32.457Z,20.13
2023-03-17T22:21:59.284Z,18.02
2023-03-17T22:24:26.138Z,21.20
2023-03-17T22:26:52.786Z,20.00
2023-03-17T22:29:19.940Z,20.15
2023-03-17T22:31:47.119Z,18.58
2023-03-17T22:34:13.959Z,20.17
2023-03-17T22:36:41.152Z,20.27
2023-03-17T22:39:10.955Z,19.17
2023-03-17T22:41:38.949Z,20.38
2023-03-17T22:44:08.345Z,20.83
2023-03-17T22:46:36.603Z,20.60
2023-03-17T22:49:03.745Z,19.60
2023-03-17T22:51:30.524Z,20.70
2023-03-17T22:53:57.777Z,20.85
2023-03-17T22:56:25.117Z,20.75
2023-03-17T22:58:52.337Z,19.77
2023-03-17T23:01:20.372Z,20.55
2023-03-17T23:03:47.258Z,19.70
2023-03-17T23:06:14.626Z,20.40
2023-03-17T23:08:43.332Z,21.75
2023-03-17T23:11:18.298Z,20.25
2023-03-17T23:13:47.342Z,19.15
2023-03-17T23:16:14.824Z,20.33
2023-03-17T23:18:44.078Z,20.58
2023-03-17T23:23:45.484Z,19.05
2023-03-17T23:26:12.102Z,19.90
2023-03-17T23:28:38.917Z,19.92
2023-03-17T23:31:05.722Z,19.58
2023-03-17T23:33:32.733Z,18.65
2023-03-17T23:35:59.534Z,21.63
2023-03-17T23:38:26.418Z,19.70
2023-03-17T23:40:56.759Z,20.95
2023-03-17T23:43:23.875Z,19.70
2023-03-17T23:45:53.073Z,20.00
2023-03-17T23:48:20.738Z,19.25
2023-03-17T23:50:50.710Z,19.70
2023-03-17T23:53:17.979Z,19.38
2023-03-17T23:55:45.296Z,18.25
2023-03-17T23:58:12.454Z,18.80
